Lancashire, United Kingdom
Current Conditions -  °F | °C
As of 6:20 AM on Thursday 29 Jan 2015 (Local Time) from EGGP Reporting Station
Scattered Clouds Scattered Clouds  
Wind Chill: -3°   Ceiling: Unl
Heat Index:   Visibility: 6mi
Dew Point:   Wind: 22mph
Humidity: 87%   Direction: 260°W
Pressure: 29.09"   Gusts: NA
Location:  53.5°N, 2.8°W
Report Text: EGGP 290620Z 26019KT 9999 FEW010 SCT040 03/01 Q0985 RERA
Loading
Personal Weather Stations






























Interactive Weather Map New forecast layout! Learn more

10-Day Weather Forecast

Advertisements
Track Severe Weather on mobile